createdAt,value
2019-01-28T00:01:53.935Z,2.17
2019-01-28T00:04:24.259Z,2.05
2019-01-28T00:07:14.295Z,2.05
2019-01-28T00:09:44.478Z,1.82
2019-01-28T00:12:14.427Z,1.52
2019-01-28T00:15:04.534Z,2.00
2019-01-28T00:17:54.444Z,2.00
2019-01-28T00:20:44.371Z,1.85
2019-01-28T00:23:55.285Z,2.65
2019-01-28T00:26:27.902Z,1.92
2019-01-28T00:29:17.008Z,2.00
2019-01-28T00:35:03.953Z,1.90
2019-01-28T00:37:55.233Z,2.27
2019-01-28T00:40:26.536Z,1.90
2019-01-28T00:46:10.711Z,1.70
2019-01-28T00:49:02.153Z,1.95
2019-01-28T00:51:42.058Z,1.57
2019-01-28T00:57:14.013Z,1.57
2019-01-28T00:59:47.339Z,1.40
2019-01-28T01:02:17.889Z,1.32
2019-01-28T01:04:48.872Z,1.60
2019-01-28T01:07:26.403Z,1.45
2019-01-28T01:09:56.490Z,1.20
2019-01-28T01:13:02.246Z,1.52
2019-01-28T01:15:52.403Z,1.72
2019-01-28T01:18:22.622Z,1.35
2019-01-28T01:20:55.280Z,1.65
2019-01-28T01:23:44.625Z,1.60
2019-01-28T01:26:14.547Z,1.95
2019-01-28T01:29:04.037Z,1.90
2019-01-28T01:31:34.495Z,2.10
2019-01-28T01:34:05.587Z,1.90
2019-01-28T01:36:36.454Z,2.00
2019-01-28T01:39:07.636Z,1.65
2019-01-28T01:41:37.717Z,1.90
2019-01-28T01:44:10.920Z,1.50
2019-01-28T01:46:42.490Z,1.22
2019-01-28T01:49:12.831Z,1.40
2019-01-28T01:51:45.688Z,1.75
2019-01-28T01:54:35.427Z,1.52
2019-01-28T01:57:05.292Z,1.75
2019-01-28T01:59:54.708Z,1.57
2019-01-28T02:02:44.366Z,1.70
2019-01-28T02:05:14.688Z,2.12
2019-01-28T02:07:48.782Z,1.72
2019-01-28T02:10:21.535Z,1.37
2019-01-28T02:15:26.822Z,1.40
2019-01-28T02:18:16.571Z,1.55
2019-01-28T02:21:06.187Z,1.62
2019-01-28T02:23:36.347Z,1.50
2019-01-28T02:26:26.124Z,1.55
2019-01-28T02:29:15.735Z,1.50
2019-01-28T02:32:05.143Z,1.85
2019-01-28T02:34:35.169Z,1.47
2019-01-28T02:37:05.277Z,1.67
2019-01-28T02:39:54.815Z,1.40
2019-01-28T02:42:45.308Z,1.60
2019-01-28T02:45:15.941Z,1.55
2019-01-28T02:47:45.710Z,1.30
2019-01-28T02:50:35.191Z,1.40
2019-01-28T02:53:24.905Z,1.27
2019-01-28T02:56:14.757Z,1.47
2019-01-28T02:58:45.206Z,1.00
2019-01-28T03:01:15.232Z,1.00
2019-01-28T03:04:04.870Z,0.85
2019-01-28T03:06:54.341Z,1.17
2019-01-28T03:09:44.018Z,1.12
2019-01-28T03:12:33.391Z,0.80
2019-01-28T03:15:04.542Z,1.30
2019-01-28T03:17:34.507Z,0.90
2019-01-28T03:20:24.236Z,1.00
2019-01-28T03:22:54.427Z,1.12
2019-01-28T03:25:44.253Z,0.90
2019-01-28T03:28:14.400Z,1.32
2019-01-28T03:30:44.581Z,0.68
2019-01-28T03:33:14.548Z,0.80
2019-01-28T03:35:44.693Z,1.00
2019-01-28T03:38:14.600Z,0.75
2019-01-28T03:41:04.084Z,0.95
2019-01-28T03:43:34.014Z,1.05
2019-01-28T03:46:23.536Z,1.10
2019-01-28T03:49:13.070Z,1.35
2019-01-28T03:52:02.999Z,1.00
2019-01-28T03:54:52.673Z,1.10
2019-01-28T03:57:22.709Z,0.80
2019-01-28T03:59:52.830Z,0.70
2019-01-28T04:02:23.068Z,1.10
2019-01-28T04:04:53.039Z,0.90
2019-01-28T04:07:23.082Z,1.00
2019-01-28T04:10:33.385Z,1.00
2019-01-28T04:13:03.734Z,1.10
2019-01-28T04:15:46.320Z,0.98
2019-01-28T04:18:36.230Z,1.00
2019-01-28T04:21:25.789Z,0.88
2019-01-28T04:24:15.177Z,1.60
2019-01-28T04:26:45.278Z,1.42
2019-01-28T04:29:15.369Z,1.00
2019-01-28T04:31:45.480Z,1.00
2019-01-28T04:34:15.542Z,0.80
2019-01-28T04:36:45.578Z,1.07
2019-01-28T04:39:15.676Z,0.98
2019-01-28T04:41:46.128Z,1.10
2019-01-28T04:44:17.961Z,2.30
2019-01-28T04:47:06.289Z,1.00
2019-01-28T04:49:36.382Z,1.10
2019-01-28T04:52:25.965Z,0.98
2019-01-28T04:55:15.596Z,1.10
2019-01-28T04:58:05.079Z,1.10
2019-01-28T05:00:54.441Z,1.40
2019-01-28T05:03:43.911Z,0.98
2019-01-28T05:06:33.526Z,0.98
2019-01-28T05:09:07.735Z,1.20
2019-01-28T05:11:37.764Z,1.00
2019-01-28T05:14:07.781Z,0.90
2019-01-28T05:16:37.859Z,0.80
2019-01-28T05:19:08.394Z,0.82
2019-01-28T05:21:38.619Z,1.22
2019-01-28T05:24:28.398Z,1.10
2019-01-28T05:26:58.475Z,0.75
2019-01-28T05:29:48.470Z,0.80
2019-01-28T05:32:38.301Z,0.93
2019-01-28T05:35:10.139Z,1.05
2019-01-28T05:38:00.911Z,0.78
2019-01-28T05:40:32.076Z,0.98
2019-01-28T05:43:21.647Z,1.05
2019-01-28T05:45:52.085Z,1.22
2019-01-28T05:48:22.243Z,1.45
2019-01-28T05:51:11.941Z,1.25
2019-01-28T05:53:42.057Z,1.00
2019-01-28T05:59:06.946Z,0.70
2019-01-28T06:05:13.131Z,0.60
2019-01-28T06:08:05.367Z,0.90
2019-01-28T06:10:35.717Z,0.82
2019-01-28T06:13:25.156Z,0.60
2019-01-28T06:16:14.632Z,1.00
2019-01-28T06:18:44.821Z,4.00
2019-01-28T06:21:34.602Z,1.00
2019-01-28T06:24:05.028Z,1.30
2019-01-28T06:26:45.153Z,1.10
2019-01-28T06:29:15.343Z,1.20
2019-01-28T06:32:05.129Z,0.70
2019-01-28T06:34:54.737Z,0.82
2019-01-28T06:37:41.775Z,0.65
2019-01-28T06:40:54.859Z,0.88
2019-01-28T06:43:44.670Z,0.82
2019-01-28T06:46:34.429Z,0.62
2019-01-28T06:49:24.754Z,0.70
2019-01-28T06:58:09.318Z,0.90
2019-01-28T07:03:35.245Z,1.15
2019-01-28T07:06:07.068Z,1.37
2019-01-28T07:09:38.055Z,0.90
2019-01-28T07:12:08.638Z,1.00
2019-01-28T07:17:55.134Z,0.95
2019-01-28T07:20:45.319Z,0.90
2019-01-28T07:23:35.247Z,1.20
2019-01-28T07:26:25.030Z,1.00
2019-01-28T07:29:14.731Z,1.00
2019-01-28T07:32:04.497Z,2.15
2019-01-28T07:34:54.067Z,2.37
2019-01-28T07:37:44.315Z,1.95
2019-01-28T07:40:34.217Z,1.30
2019-01-28T07:43:04.572Z,1.40
2019-01-28T07:45:44.657Z,1.30
2019-01-28T07:48:09.176Z,1.27
2019-01-28T07:50:39.583Z,1.60
2019-01-28T07:53:09.634Z,1.22
2019-01-28T07:55:39.692Z,1.00
2019-01-28T07:58:09.795Z,0.90
2019-01-28T08:00:39.955Z,1.55
2019-01-28T08:03:29.613Z,1.07
2019-01-28T08:05:59.953Z,1.62
2019-01-28T08:08:49.535Z,1.30
2019-01-28T08:11:19.764Z,1.20
2019-01-28T08:14:09.412Z,1.60
2019-01-28T08:16:58.000Z,1.10
2019-01-28T08:19:41.754Z,1.30
2019-01-28T08:22:31.490Z,1.50
2019-01-28T08:25:01.569Z,1.12
2019-01-28T08:27:51.080Z,1.00
2019-01-28T08:30:36.120Z,0.90
2019-01-28T08:33:07.122Z,1.00
2019-01-28T08:35:38.369Z,0.80
2019-01-28T08:38:09.313Z,1.17
2019-01-28T08:40:59.583Z,1.00
2019-01-28T08:43:29.769Z,1.00
2019-01-28T08:45:59.935Z,0.90
2019-01-28T08:48:30.222Z,1.12
2019-01-28T08:51:00.619Z,1.00
2019-01-28T08:53:50.827Z,1.25
2019-01-28T08:56:21.001Z,1.90
2019-01-28T08:58:51.427Z,1.30
2019-01-28T09:01:41.186Z,1.55
2019-01-28T09:04:12.169Z,0.80
2019-01-28T09:06:43.020Z,0.82
2019-01-28T09:09:32.910Z,0.80
2019-01-28T09:12:22.636Z,0.93
2019-01-28T09:14:52.794Z,1.98
2019-01-28T09:17:42.197Z,1.05
2019-01-28T09:20:28.345Z,1.10
2019-01-28T09:23:18.638Z,0.95
2019-01-28T09:25:52.669Z,0.90
2019-01-28T09:34:14.459Z,1.10
2019-01-28T09:43:01.806Z,1.52
2019-01-28T09:45:41.882Z,0.72
2019-01-28T09:48:34.359Z,1.52
2019-01-28T09:54:55.066Z,1.35
2019-01-28T10:00:36.281Z,1.55
2019-01-28T10:03:07.974Z,1.47
2019-01-28T10:05:38.519Z,1.45
2019-01-28T10:08:09.481Z,1.10
2019-01-28T10:11:00.106Z,1.40
2019-01-28T10:13:31.389Z,1.30
2019-01-28T10:16:19.776Z,1.25
2019-01-28T10:18:51.312Z,1.37
2019-01-28T10:40:36.489Z,1.40
2019-01-28T10:43:09.057Z,1.80
2019-01-28T10:48:11.462Z,1.17
2019-01-28T10:50:44.229Z,1.45
2019-01-28T10:53:17.830Z,2.10
2019-01-28T10:55:48.764Z,2.02
2019-01-28T10:58:38.613Z,1.50
2019-01-28T11:01:09.277Z,1.50
2019-01-28T11:03:59.488Z,1.30
2019-01-28T11:06:49.206Z,1.60
2019-01-28T11:09:19.744Z,1.00
2019-01-28T11:12:09.805Z,1.20
2019-01-28T11:17:16.076Z,1.90
2019-01-28T11:19:46.425Z,2.10
2019-01-28T11:22:16.630Z,1.40
2019-01-28T11:24:47.716Z,1.55
2019-01-28T11:31:08.244Z,1.60
2019-01-28T11:34:05.832Z,1.30
2019-01-28T11:36:42.155Z,1.60
2019-01-28T11:52:27.189Z,1.37
2019-01-28T11:54:58.197Z,1.90
2019-01-28T11:57:39.946Z,1.40
2019-01-28T12:00:56.252Z,1.30
2019-01-28T12:07:12.986Z,1.70
2019-01-28T12:09:53.140Z,1.90
2019-01-28T12:15:41.351Z,2.15
2019-01-28T12:18:24.195Z,2.05
2019-01-28T12:24:21.724Z,1.80
2019-01-28T12:29:36.230Z,1.80
2019-01-28T12:32:06.561Z,1.55
2019-01-28T12:34:48.243Z,1.25
2019-01-28T12:40:47.921Z,2.35
2019-01-28T12:43:43.633Z,1.95
2019-01-28T12:46:18.098Z,1.70
2019-01-28T12:49:11.712Z,1.90
2019-01-28T12:51:47.609Z,1.87
2019-01-28T12:54:20.794Z,1.60
2019-01-28T12:56:52.058Z,1.55
2019-01-28T12:59:29.035Z,1.75
2019-01-28T13:17:18.086Z,2.10
2019-01-28T13:20:09.135Z,2.50
2019-01-28T13:25:56.492Z,1.77
2019-01-28T13:29:08.849Z,1.80
2019-01-28T13:44:08.953Z,1.77
2019-01-28T13:46:40.917Z,2.17
2019-01-28T13:49:37.957Z,1.50
2019-01-28T13:52:25.958Z,1.75
2019-01-28T13:54:57.097Z,1.80
2019-01-28T13:57:29.018Z,1.55
2019-01-28T13:59:59.724Z,1.40
2019-01-28T14:02:30.692Z,1.47
2019-01-28T14:08:03.821Z,1.85
2019-01-28T14:10:51.848Z,1.70
2019-01-28T14:13:25.361Z,1.45
2019-01-28T14:16:16.405Z,1.80
2019-01-28T14:21:53.611Z,1.10
2019-01-28T14:24:45.502Z,1.70
2019-01-28T14:27:22.919Z,1.30
2019-01-28T14:30:02.613Z,1.67
2019-01-28T14:35:55.991Z,1.55
2019-01-28T14:41:26.631Z,1.77
2019-01-28T14:43:57.419Z,1.55
2019-01-28T14:46:30.589Z,1.80
2019-01-28T14:49:06.975Z,2.85
2019-01-28T15:06:29.190Z,1.00
2019-01-28T15:12:11.439Z,1.35
2019-01-28T15:23:33.632Z,1.30
2019-01-28T15:26:23.711Z,1.62
2019-01-28T15:28:54.964Z,2.80
2019-01-28T15:31:25.446Z,2.30
2019-01-28T15:36:43.986Z,2.50
2019-01-28T15:42:33.479Z,1.45
2019-01-28T15:45:26.799Z,1.12
2019-01-28T15:48:18.552Z,1.00
2019-01-28T15:54:05.471Z,1.40
2019-01-28T16:11:48.662Z,1.50
2019-01-28T16:14:38.436Z,1.15
2019-01-28T16:17:28.651Z,0.90
2019-01-28T16:20:37.938Z,1.00
2019-01-28T16:23:08.888Z,1.20
2019-01-28T16:25:39.233Z,1.20
2019-01-28T16:28:09.876Z,0.88
2019-01-28T16:31:01.578Z,1.62
2019-01-28T16:39:13.899Z,1.70
2019-01-28T16:48:53.345Z,1.22
2019-01-28T16:50:43.488Z,1.30
2019-01-28T16:53:33.737Z,1.37
2019-01-28T16:56:25.536Z,1.10
2019-01-28T17:01:42.267Z,0.98
2019-01-28T17:04:13.525Z,1.40
2019-01-28T17:07:07.207Z,1.20
2019-01-28T17:15:32.185Z,1.30
2019-01-28T17:27:21.567Z,1.45
2019-01-28T17:30:18.612Z,1.50
2019-01-28T17:38:45.133Z,2.10
2019-01-28T17:41:30.605Z,3.12
2019-01-28T17:44:01.752Z,2.00
2019-01-28T17:46:33.566Z,2.35
2019-01-28T17:49:09.195Z,2.22
2019-01-28T17:51:40.025Z,2.35
2019-01-28T17:54:30.276Z,2.55
2019-01-28T17:57:01.215Z,2.40
2019-01-28T18:02:34.401Z,3.70
2019-01-28T18:05:18.350Z,3.77
2019-01-28T18:34:34.541Z,3.87
2019-01-28T18:37:12.777Z,3.30
2019-01-28T19:03:11.287Z,5.08
2019-01-28T19:11:21.713Z,5.30
2019-01-28T19:14:19.695Z,5.50
2019-01-28T19:17:33.578Z,5.60
2019-01-28T19:33:00.027Z,4.60
2019-01-28T19:38:26.970Z,4.92
2019-01-28T19:41:28.156Z,4.80
2019-01-28T19:53:17.584Z,4.10
2019-01-28T19:58:57.104Z,4.22
2019-01-28T20:01:28.629Z,4.58
2019-01-28T20:12:50.141Z,3.62
2019-01-28T20:15:22.303Z,4.83
2019-01-28T20:17:52.947Z,4.65
2019-01-28T20:20:23.845Z,4.20
2019-01-28T20:22:54.158Z,3.67
2019-01-28T20:25:25.007Z,3.55
2019-01-28T20:27:55.512Z,4.58
2019-01-28T20:30:27.654Z,4.35
2019-01-28T20:32:57.887Z,4.37
2019-01-28T20:35:30.055Z,3.87
2019-01-28T20:38:04.587Z,4.15
2019-01-28T20:40:37.670Z,3.95
2019-01-28T20:43:23.998Z,4.85
2019-01-28T20:45:56.374Z,3.67
2019-01-28T20:48:26.908Z,3.75
2019-01-28T20:50:58.532Z,5.03
2019-01-28T20:53:31.269Z,4.05
2019-01-28T20:56:01.854Z,4.12
2019-01-28T20:58:33.149Z,4.47
2019-01-28T21:01:08.833Z,4.50
2019-01-28T21:03:39.677Z,3.90
2019-01-28T21:06:11.145Z,4.20
2019-01-28T21:08:43.118Z,4.45
2019-01-28T21:11:15.146Z,3.85
2019-01-28T21:13:46.881Z,3.87
2019-01-28T21:16:17.509Z,3.33
2019-01-28T21:18:49.023Z,3.85
2019-01-28T21:21:21.914Z,4.28
2019-01-28T21:23:52.440Z,4.20
2019-01-28T21:26:22.692Z,4.25
2019-01-28T21:28:54.526Z,3.85
2019-01-28T21:31:25.177Z,5.28
2019-01-28T21:33:55.819Z,4.03
2019-01-28T21:36:33.434Z,5.15
2019-01-28T21:39:14.075Z,3.40
2019-01-28T21:41:45.121Z,3.80
2019-01-28T21:44:31.632Z,4.30
2019-01-28T21:47:01.864Z,4.53
2019-01-28T21:57:37.112Z,4.03
2019-01-28T22:00:07.916Z,3.83
2019-01-28T22:02:38.173Z,3.95
2019-01-28T22:05:13.875Z,3.67
2019-01-28T22:07:43.962Z,3.98
2019-01-28T22:10:14.521Z,3.72
2019-01-28T22:12:44.734Z,4.20
2019-01-28T22:15:18.721Z,3.40
2019-01-28T22:17:52.860Z,3.50
2019-01-28T22:20:25.046Z,4.47
2019-01-28T22:23:11.060Z,3.90
2019-01-28T22:25:41.399Z,3.45
2019-01-28T22:28:14.900Z,5.45
2019-01-28T22:30:54.700Z,4.70
2019-01-28T22:33:29.168Z,4.37
2019-01-28T22:35:59.759Z,4.25
2019-01-28T22:38:30.438Z,3.50
2019-01-28T22:41:00.886Z,4.22
2019-01-28T22:43:31.507Z,4.00
2019-01-28T22:46:01.512Z,4.15
2019-01-28T22:48:31.563Z,4.45
2019-01-28T22:51:01.895Z,4.60
2019-01-28T22:53:31.790Z,4.00
2019-01-28T22:56:01.814Z,5.60
2019-01-28T22:58:31.839Z,4.40
2019-01-28T23:01:35.979Z,4.35
2019-01-28T23:04:06.710Z,4.12
2019-01-28T23:06:37.211Z,4.87
2019-01-28T23:09:10.003Z,3.85
2019-01-28T23:11:39.939Z,4.17
2019-01-28T23:14:10.129Z,4.22
2019-01-28T23:16:40.291Z,3.70
2019-01-28T23:19:10.395Z,3.83
2019-01-28T23:21:41.747Z,3.40
2019-01-28T23:24:11.848Z,4.05
2019-01-28T23:26:41.948Z,3.30
2019-01-28T23:29:11.894Z,4.33
2019-01-28T23:31:41.772Z,3.98
2019-01-28T23:34:11.828Z,4.30
2019-01-28T23:36:41.813Z,4.33
2019-01-28T23:39:11.782Z,4.00
2019-01-28T23:41:41.681Z,4.08
2019-01-28T23:44:11.588Z,4.00
2019-01-28T23:46:41.551Z,4.03
2019-01-28T23:49:11.454Z,4.08
2019-01-28T23:51:41.466Z,4.15
2019-01-28T23:54:11.772Z,4.50
2019-01-28T23:56:41.868Z,4.10
2019-01-28T23:59:11.868Z,4.65
